Time;durP1;ratioP1;P1;durP2;ratioP2;P2;SDS_P1;SDS_P2;PMS_P1;PMS_P2;Temp;Humidity;BMP_temperature;BMP_pressure;BME280_temperature;BME280_humidity;BME280_pressure;Samples;Min_cycle;Max_cycle;Signal;HPM_P1;HPM_P2
2021/08/05 00:00:55;;;;;;;3.03;2.50;;;;;;;16.70;nan;100087.13;5048613;28;20397;-75
2021/08/05 00:03:20;;;;;;;4.15;3.10;;;;;;;16.62;nan;100082.81;5047433;28;20516;-75
2021/08/05 00:05:46;;;;;;;4.03;2.70;;;;;;;16.57;nan;100085.28;5048302;28;20120;-74
2021/08/05 00:08:11;;;;;;;3.40;2.60;;;;;;;16.58;nan;100083.41;5048121;28;20780;-75
2021/08/05 00:10:36;;;;;;;3.35;2.28;;;;;;;16.61;nan;100091.00;5049207;28;20048;-75
2021/08/05 00:13:02;;;;;;;3.90;2.78;;;;;;;16.68;nan;100084.66;5048382;28;20033;-75
2021/08/05 00:15:28;;;;;;;3.45;2.42;;;;;;;16.64;nan;100080.78;5047565;28;20041;-75
2021/08/05 00:17:53;;;;;;;3.10;2.25;;;;;;;16.64;nan;100082.63;5048773;28;20110;-75
2021/08/05 00:20:19;;;;;;;3.45;2.42;;;;;;;16.62;nan;100080.16;5049160;28;20040;-75
2021/08/05 00:22:44;;;;;;;3.33;2.40;;;;;;;16.56;nan;100080.94;5048365;28;20061;-74
2021/08/05 00:25:09;;;;;;;2.70;2.25;;;;;;;16.47;nan;100080.31;5048505;28;20113;-74
2021/08/05 00:27:35;;;;;;;2.97;2.50;;;;;;;16.38;nan;100078.03;5048788;28;20041;-74
2021/08/05 00:30:00;;;;;;;3.38;2.45;;;;;;;16.25;nan;100084.13;5049111;28;20025;-74
2021/08/05 00:32:25;;;;;;;4.13;2.60;;;;;;;16.19;nan;100077.75;5048225;28;20041;-74
2021/08/05 00:34:51;;;;;;;4.47;2.40;;;;;;;16.12;nan;100071.56;5048729;28;20079;-75
2021/08/05 00:37:16;;;;;;;5.25;3.08;;;;;;;16.06;nan;100077.69;5048842;28;20090;-74
2021/08/05 00:39:42;;;;;;;3.95;2.55;;;;;;;15.99;nan;100077.66;5049011;28;20040;-74
2021/08/05 00:42:07;;;;;;;3.97;2.88;;;;;;;15.92;nan;100079.47;5049873;28;20048;-74
2021/08/05 00:44:33;;;;;;;3.70;2.90;;;;;;;15.82;nan;100074.50;5052933;28;20523;-74
2021/08/05 00:46:58;;;;;;;4.10;2.92;;;;;;;15.76;nan;100075.31;5051317;28;20039;-74
2021/08/05 00:49:24;;;;;;;3.58;2.78;;;;;;;15.71;nan;100080.41;5052874;28;20044;-74
2021/08/05 00:51:50;;;;;;;3.67;2.50;;;;;;;15.73;nan;100070.38;5052484;28;20033;-75
2021/08/05 00:54:16;;;;;;;2.78;2.20;;;;;;;15.75;nan;100064.81;5052298;28;20033;-75
2021/08/05 00:56:41;;;;;;;3.00;2.28;;;;;;;15.79;nan;100060.75;5052012;28;20049;-75
2021/08/05 00:59:07;;;;;;;3.22;2.50;;;;;;;15.77;nan;100060.13;5053030;28;20056;-75
2021/08/05 01:01:49;;;;;;;2.97;2.50;;;;;;;15.76;nan;100064.63;5051931;28;20497;-74
2021/08/05 01:04:15;;;;;;;3.20;2.50;;;;;;;15.66;nan;100064.97;5051106;28;20116;-74
2021/08/05 01:06:55;;;;;;;3.40;2.60;;;;;;;15.58;nan;100057.13;5052049;28;20477;-74
2021/08/05 01:09:34;;;;;;;4.00;3.10;;;;;;;15.51;nan;100059.72;5050214;28;20060;-74
2021/08/05 01:12:17;;;;;;;3.63;2.42;;;;;;;15.50;nan;100055.44;5052253;28;20083;-74
2021/08/05 01:14:48;;;;;;;3.25;2.30;;;;;;;15.53;nan;100053.41;5024319;28;20056;-74
2021/08/05 01:17:16;;;;;;;;;;;;;;;15.48;nan;100056.66;5042834;28;20036;-74
2021/08/05 01:19:56;;;;;;;3.67;2.80;;;;;;;15.39;nan;100055.16;5051709;28;19944;-74
2021/08/05 01:22:58;;;;;;;3.63;2.97;;;;;;;15.29;nan;100058.97;5051814;28;20407;-74
2021/08/05 01:25:32;;;;;;;4.85;3.17;;;;;;;15.25;nan;100064.88;5050046;28;20076;-74
2021/08/05 01:27:59;;;;;;;4.50;3.00;;;;;;;15.16;nan;100055.38;5052218;28;20075;-74
2021/08/05 01:30:27;;;;;;;3.97;2.80;;;;;;;15.15;nan;100048.44;5051596;28;20045;-74
2021/08/05 01:32:54;;;;;;;3.95;2.83;;;;;;;15.14;nan;100060.09;5052043;28;20041;-74
2021/08/05 01:35:21;;;;;;;3.72;2.60;;;;;;;15.11;nan;100056.00;5051615;28;20194;-74
2021/08/05 01:37:48;;;;;;;4.03;2.70;;;;;;;15.15;nan;100053.75;5052180;28;20037;-74
2021/08/05 01:40:14;;;;;;;4.30;2.47;;;;;;;15.11;nan;100053.31;5051003;28;20040;-74
2021/08/05 01:42:40;;;;;;;4.22;2.72;;;;;;;15.08;nan;100051.84;5052080;28;20389;-74
2021/08/05 01:45:09;;;;;;;3.80;2.97;;;;;;;15.02;nan;100052.63;5051972;28;20028;-74
2021/08/05 01:47:35;;;;;;;4.97;2.88;;;;;;;14.99;nan;100045.03;5051521;28;20413;-74
2021/08/05 01:50:01;;;;;;;4.28;2.78;;;;;;;14.97;nan;100056.88;5050611;28;20033;-74
2021/08/05 01:52:26;;;;;;;3.53;2.53;;;;;;;14.98;nan;100054.03;5051354;28;20055;-74
2021/08/05 01:54:52;;;;;;;3.83;2.60;;;;;;;14.96;nan;100050.72;5051118;28;20033;-74
2021/08/05 01:57:17;;;;;;;3.03;2.40;;;;;;;15.00;nan;100046.66;5052195;28;20076;-74
2021/08/05 01:59:43;;;;;;;3.30;2.42;;;;;;;15.06;nan;100048.56;5053787;28;20176;-74
2021/08/05 02:02:09;;;;;;;3.10;2.20;;;;;;;15.07;nan;100039.56;5049990;28;20082;-74
2021/08/05 02:04:55;;;;;;;3.38;2.67;;;;;;;15.11;nan;100045.34;5052407;28;20036;-74
2021/08/05 02:07:27;;;;;;;3.92;2.60;;;;;;;15.08;nan;100043.84;5051431;28;20044;-74
2021/08/05 02:09:55;;;;;;;4.00;2.63;;;;;;;15.06;nan;100037.94;5052615;28;20102;-74
2021/08/05 02:12:20;;;;;;;4.47;2.95;;;;;;;15.02;nan;100031.34;5051253;28;20071;-74
2021/08/05 02:14:49;;;;;;;3.65;2.63;;;;;;;15.03;nan;100040.13;5051076;28;20118;-74
2021/08/05 02:17:16;;;;;;;3.40;2.55;;;;;;;15.00;nan;100030.69;5050029;28;20034;-74
2021/08/05 02:19:41;;;;;;;3.20;2.70;;;;;;;14.98;nan;100023.91;5051538;28;20065;-74
2021/08/05 02:22:08;;;;;;;3.65;2.53;;;;;;;14.95;nan;100022.47;5050893;28;20059;-74
2021/08/05 02:24:33;;;;;;;3.95;2.95;;;;;;;14.88;nan;100024.25;5050536;28;20037;-74
2021/08/05 02:26:59;;;;;;;3.95;3.00;;;;;;;14.80;nan;100029.69;5050731;28;20033;-74
2021/08/05 02:29:26;;;;;;;4.95;2.92;;;;;;;14.76;nan;100028.44;5051277;28;20119;-74
2021/08/05 02:31:53;;;;;;;4.30;3.17;;;;;;;14.73;nan;100020.84;5047581;28;20029;-74
2021/08/05 02:34:20;;;;;;;5.95;3.10;;;;;;;14.69;nan;100024.91;5050310;28;20047;-74
2021/08/05 02:36:45;;;;;;;3.80;2.85;;;;;;;14.68;nan;100025.91;5050592;28;20445;-74
2021/08/05 02:39:11;;;;;;;3.88;2.72;;;;;;;14.62;nan;100017.69;5050642;28;20052;-74
2021/08/05 02:41:37;;;;;;;3.38;2.72;;;;;;;14.57;nan;100020.09;5050626;28;20037;-74
2021/08/05 02:44:04;;;;;;;3.67;2.83;;;;;;;14.57;nan;100011.28;5050374;28;20037;-74
2021/08/05 02:46:30;;;;;;;3.35;2.70;;;;;;;14.55;nan;100021.28;5050528;28;20036;-74
2021/08/05 02:48:57;;;;;;;4.00;2.97;;;;;;;14.53;nan;100005.47;5050724;28;20044;-74
2021/08/05 02:51:24;;;;;;;4.30;2.92;;;;;;;14.54;nan;100003.66;5049726;28;20047;-74
2021/08/05 02:53:51;;;;;;;4.30;3.10;;;;;;;14.50;nan;100003.22;5050570;28;20036;-74
2021/08/05 02:56:16;;;;;;;4.13;3.05;;;;;;;14.48;nan;99996.44;5049169;28;20025;-74
2021/08/05 02:58:43;;;;;;;5.32;3.13;;;;;;;14.53;nan;100002.81;5049752;28;20486;-74
2021/08/05 03:01:08;;;;;;;4.10;3.22;;;;;;;14.50;nan;99997.88;5048960;28;20497;-74
2021/08/05 03:03:34;;;;;;;5.18;3.20;;;;;;;14.45;nan;99994.97;5049880;28;20044;-74
2021/08/05 03:06:00;;;;;;;4.78;3.50;;;;;;;14.40;nan;99998.22;5049990;28;20124;-74
2021/08/05 03:08:25;;;;;;;3.40;2.90;;;;;;;14.37;nan;99992.44;5049946;28;20076;-74
2021/08/05 03:10:50;;;;;;;4.93;3.40;;;;;;;14.33;nan;99997.31;5050235;28;20038;-74
2021/08/05 03:13:16;;;;;;;3.83;3.20;;;;;;;14.29;nan;99992.56;5048819;28;20052;-74
2021/08/05 03:15:42;;;;;;;3.40;2.53;;;;;;;14.30;nan;99987.06;5049694;28;20520;-74
2021/08/05 03:18:07;;;;;;;4.57;2.75;;;;;;;14.28;nan;99990.91;5049339;28;20033;-74
2021/08/05 03:20:32;;;;;;;3.53;2.45;;;;;;;14.26;nan;99991.09;5049912;28;20472;-74
2021/08/05 03:22:59;;;;;;;4.05;2.97;;;;;;;14.20;nan;99987.34;5049748;28;20056;-74
2021/08/05 03:25:25;;;;;;;3.97;2.97;;;;;;;14.29;nan;99996.03;5049009;28;20048;-74
2021/08/05 03:27:50;;;;;;;4.07;2.50;;;;;;;14.34;nan;99990.97;5049012;28;20036;-74
2021/08/05 03:30:15;;;;;;;4.15;3.10;;;;;;;14.38;nan;99986.94;5047789;28;20045;-74
2021/08/05 03:32:41;;;;;;;6.32;3.53;;;;;;;14.35;nan;99991.78;5049783;28;20033;-74
2021/08/05 03:35:06;;;;;;;5.10;3.30;;;;;;;14.37;nan;99993.28;5048844;28;20036;-74
2021/08/05 03:37:32;;;;;;;3.20;2.75;;;;;;;14.37;nan;99997.75;5049861;28;20075;-74
2021/08/05 03:39:57;;;;;;;5.78;3.33;;;;;;;14.38;nan;99997.56;5048536;28;20480;-74
2021/08/05 03:42:22;;;;;;;4.25;2.97;;;;;;;14.33;nan;99989.34;5049003;28;20526;-74
2021/08/05 03:44:50;;;;;;;4.10;3.00;;;;;;;14.29;nan;100003.19;5049137;28;20037;-74
2021/08/05 03:47:15;;;;;;;3.78;2.90;;;;;;;14.26;nan;100001.75;5048096;28;20547;-74
2021/08/05 03:49:41;;;;;;;5.38;3.00;;;;;;;14.29;nan;100000.53;5048280;28;20045;-74
2021/08/05 03:52:06;;;;;;;5.65;3.13;;;;;;;14.30;nan;99999.50;5048942;28;20041;-74
2021/08/05 03:54:31;;;;;;;4.30;3.20;;;;;;;14.25;nan;100000.09;5048883;28;20389;-74
2021/08/05 03:56:56;;;;;;;4.07;3.10;;;;;;;14.18;nan;100007.16;5049418;28;20044;-74
2021/08/05 03:59:22;;;;;;;3.65;2.92;;;;;;;14.17;nan;100005.53;5048822;28;20120;-74
2021/08/05 04:01:47;;;;;;;3.20;2.63;;;;;;;14.15;nan;100008.38;5048915;28;20119;-74
2021/08/05 04:04:13;;;;;;;4.95;3.22;;;;;;;14.12;nan;100010.59;5043289;28;20047;-74
2021/08/05 04:06:38;;;;;;;5.22;3.28;;;;;;;14.14;nan;100001.41;5049345;28;20154;-74
2021/08/05 04:09:03;;;;;;;4.30;2.80;;;;;;;14.13;nan;100002.41;5049324;28;20111;-74
2021/08/05 04:11:29;;;;;;;3.88;3.00;;;;;;;14.15;nan;100004.88;5049492;28;20114;-74
2021/08/05 04:13:54;;;;;;;4.80;3.35;;;;;;;14.11;nan;100007.13;5049104;28;20117;-74
2021/08/05 04:16:19;;;;;;;4.37;2.80;;;;;;;14.09;nan;100013.63;5047952;28;20029;-74
2021/08/05 04:18:45;;;;;;;3.53;2.80;;;;;;;14.08;nan;99998.66;5048931;28;20287;-74
2021/08/05 04:21:10;;;;;;;4.28;3.17;;;;;;;14.06;nan;100006.81;5047170;28;20036;-74
2021/08/05 04:23:35;;;;;;;4.65;3.28;;;;;;;14.17;nan;100011.66;5050171;28;20029;-74
2021/08/05 04:26:01;;;;;;;4.22;3.15;;;;;;;14.24;nan;100009.91;5049717;28;20033;-74
2021/08/05 04:28:26;;;;;;;4.55;3.22;;;;;;;14.30;nan;100008.34;5048831;28;20068;-74
2021/08/05 04:30:53;;;;;;;3.95;3.13;;;;;;;14.28;nan;100006.84;5048818;28;20395;-74
2021/08/05 04:33:18;;;;;;;3.72;3.00;;;;;;;14.22;nan;100011.91;5049004;28;20032;-74
2021/08/05 04:35:44;;;;;;;4.43;3.30;;;;;;;14.20;nan;100011.28;5048529;28;20040;-74
2021/08/05 04:38:10;;;;;;;4.35;3.10;;;;;;;14.31;nan;100009.97;5048171;28;20028;-74
2021/08/05 04:40:36;;;;;;;3.80;2.80;;;;;;;14.34;nan;100019.41;5048277;28;20118;-74
2021/08/05 04:43:01;;;;;;;3.40;2.67;;;;;;;14.39;nan;100024.97;5048749;28;20503;-74
2021/08/05 04:45:26;;;;;;;3.30;2.60;;;;;;;14.45;nan;100022.41;5048200;28;20037;-74
2021/08/05 04:47:53;;;;;;;4.25;2.70;;;;;;;14.54;nan;100012.50;5046548;28;20036;-74
2021/08/05 04:50:19;;;;;;;3.53;2.65;;;;;;;14.63;nan;100018.50;5045126;28;20041;-74
2021/08/05 04:52:44;;;;;;;2.80;2.10;;;;;;;14.72;nan;100011.22;5048352;28;20036;-74
2021/08/05 04:55:10;;;;;;;4.18;2.47;;;;;;;14.81;nan;100010.06;5048758;28;20033;-74
2021/08/05 04:57:45;;;;;;;3.35;2.55;;;;;;;14.97;nan;100009.78;5048980;28;20383;-74
2021/08/05 05:00:11;;;;;;;4.25;2.97;;;;;;;15.11;nan;100010.72;5048228;28;20325;-74
2021/08/05 05:02:37;;;;;;;4.00;3.03;;;;;;;15.12;nan;100006.22;5048072;28;20033;-74
2021/08/05 05:05:02;;;;;;;3.55;2.88;;;;;;;15.19;nan;100007.06;5048321;28;20390;-74
2021/08/05 05:07:27;;;;;;;3.80;2.90;;;;;;;15.26;nan;100010.59;5048817;28;20041;-74
2021/08/05 05:09:53;;;;;;;4.30;2.75;;;;;;;15.38;nan;100003.72;5048495;28;20540;-74
2021/08/05 05:12:18;;;;;;;4.28;2.60;;;;;;;15.57;nan;100001.38;5047736;28;20584;-74
2021/08/05 05:14:43;;;;;;;3.47;2.75;;;;;;;15.70;nan;100004.09;5048370;28;20033;-74
2021/08/05 05:17:08;;;;;;;3.77;2.60;;;;;;;15.73;nan;99998.41;5048228;28;20486;-75
2021/08/05 05:19:34;;;;;;;3.55;2.80;;;;;;;15.79;nan;100000.25;5048069;28;20317;-75
2021/08/05 05:21:59;;;;;;;3.78;2.85;;;;;;;15.83;nan;100006.84;5048574;28;20040;-74
2021/08/05 05:24:24;;;;;;;3.17;2.50;;;;;;;15.94;nan;99997.44;5047177;28;20040;-74
2021/08/05 05:26:50;;;;;;;3.50;2.80;;;;;;;15.96;nan;100000.72;5048116;28;20048;-74
2021/08/05 05:29:15;;;;;;;3.85;2.83;;;;;;;16.04;nan;99999.72;5049591;28;20513;-74
2021/08/05 05:31:40;;;;;;;4.55;2.45;;;;;;;16.07;nan;100002.00;5051725;28;20052;-74
2021/08/05 05:34:05;;;;;;;3.55;2.65;;;;;;;16.04;nan;99999.72;5050714;28;20563;-75
2021/08/05 05:36:31;;;;;;;4.30;2.70;;;;;;;15.97;nan;100001.53;5051610;28;20036;-75
2021/08/05 05:38:56;;;;;;;4.00;2.60;;;;;;;16.03;nan;100001.56;5051446;28;20090;-75
2021/08/05 05:41:21;;;;;;;3.67;2.80;;;;;;;16.03;nan;99998.91;5050463;28;20105;-75
2021/08/05 05:43:47;;;;;;;3.75;2.70;;;;;;;16.06;nan;100000.34;5051700;28;20033;-74
2021/08/05 05:46:12;;;;;;;3.13;2.65;;;;;;;16.09;nan;100000.78;5050649;28;20040;-74
2021/08/05 05:48:38;;;;;;;3.15;2.55;;;;;;;16.18;nan;100000.59;5050260;28;20040;-75
2021/08/05 05:51:03;;;;;;;3.30;2.05;;;;;;;16.33;nan;99999.41;5049451;28;20035;-74
2021/08/05 05:53:29;;;;;;;3.95;2.05;;;;;;;16.57;nan;99997.19;5051881;28;20029;-75
2021/08/05 05:55:54;;;;;;;2.83;2.10;;;;;;;17.05;nan;100001.53;5051279;28;20133;-75
2021/08/05 05:58:20;;;;;;;3.78;2.30;;;;;;;17.57;nan;99999.78;5051751;28;20561;-75
2021/08/05 06:00:45;;;;;;;4.55;2.55;;;;;;;18.08;nan;99996.28;5051787;28;20056;-75
2021/08/05 06:03:10;;;;;;;4.53;3.20;;;;;;;18.62;nan;99996.78;5043057;28;20037;-74
2021/08/05 06:05:35;;;;;;;4.72;3.25;;;;;;;19.16;nan;100002.53;5050792;28;20032;-75
2021/08/05 06:08:01;;;;;;;5.63;3.05;;;;;;;19.75;nan;100002.97;5051843;28;20029;-75
2021/08/05 06:10:27;;;;;;;6.53;3.33;;;;;;;20.18;nan;99999.31;5051186;28;20116;-74
2021/08/05 06:12:52;;;;;;;4.32;3.28;;;;;;;20.58;nan;99989.66;5050491;28;20040;-75
2021/08/05 06:15:18;;;;;;;5.28;3.15;;;;;;;21.15;nan;99991.00;5049262;28;20104;-75
2021/08/05 06:17:45;;;;;;;4.57;2.90;;;;;;;21.30;nan;99996.69;5050867;28;20124;-75
2021/08/05 06:20:12;;;;;;;3.83;3.00;;;;;;;21.19;nan;99990.28;5049481;28;20506;-75
2021/08/05 06:22:39;;;;;;;3.35;2.90;;;;;;;20.51;nan;99993.47;5051034;28;20031;-75
2021/08/05 06:25:05;;;;;;;6.05;3.22;;;;;;;20.18;nan;99992.09;5050610;28;20108;-75
2021/08/05 06:27:30;;;;;;;3.83;3.03;;;;;;;19.71;nan;99989.19;5049904;28;20582;-75
2021/08/05 06:29:58;;;;;;;3.85;2.70;;;;;;;20.00;nan;99998.31;5050571;28;20047;-74
2021/08/05 06:32:23;;;;;;;5.07;3.65;;;;;;;20.64;nan;99995.16;5048685;28;20037;-76
2021/08/05 06:34:49;;;;;;;4.28;3.17;;;;;;;21.11;nan;99997.88;5050585;28;20029;-76
2021/08/05 06:37:14;;;;;;;5.90;3.00;;;;;;;21.37;nan;99999.28;5050429;28;20095;-76
2021/08/05 06:39:39;;;;;;;4.28;3.40;;;;;;;21.66;nan;99999.38;5050509;28;20037;-75
2021/08/05 06:42:05;;;;;;;4.95;3.40;;;;;;;21.79;nan;99997.22;5051122;28;20037;-75
2021/08/05 06:44:34;;;;;;;4.22;3.30;;;;;;;21.76;nan;100000.41;5050966;28;20508;-75
2021/08/05 06:47:05;;;;;;;4.97;3.25;;;;;;;22.13;nan;100004.59;5051219;28;20076;-76
2021/08/05 06:49:30;;;;;;;4.88;3.40;;;;;;;22.44;nan;100008.69;5056517;28;20028;-76
2021/08/05 06:51:55;;;;;;;4.70;3.70;;;;;;;22.52;nan;100004.78;5051173;28;20402;-75
2021/08/05 06:54:21;;;;;;;4.72;3.60;;;;;;;22.60;nan;100010.59;5049240;28;20029;-74
2021/08/05 06:56:46;;;;;;;5.95;3.58;;;;;;;22.67;nan;100005.06;5049315;28;20112;-75
2021/08/05 06:59:13;;;;;;;6.05;3.65;;;;;;;22.65;nan;100005.28;5051229;28;20029;-75
2021/08/05 07:01:38;;;;;;;4.95;3.22;;;;;;;22.89;nan;100005.13;5050929;28;20052;-75
2021/08/05 07:04:03;;;;;;;5.70;3.60;;;;;;;23.01;nan;100000.50;5049908;28;20029;-75
2021/08/05 07:06:29;;;;;;;5.75;4.00;;;;;;;23.43;nan;100012.66;5050423;28;20052;-75
2021/08/05 07:08:54;;;;;;;4.53;3.70;;;;;;;23.11;nan;100006.03;5050173;28;20037;-75
2021/08/05 07:11:19;;;;;;;6.25;4.00;;;;;;;22.77;nan;100015.19;5050891;28;20303;-74
2021/08/05 07:13:45;;;;;;;5.57;4.20;;;;;;;22.12;nan;100001.09;5050400;28;20548;-75
2021/08/05 07:16:10;;;;;;;6.68;4.53;;;;;;;22.30;nan;100004.66;5049671;28;20036;-75
2021/08/05 07:18:35;;;;;;;5.55;4.05;;;;;;;22.06;nan;100010.13;5050506;28;20033;-74
2021/08/05 07:21:01;;;;;;;4.38;3.55;;;;;;;22.08;nan;100008.00;5050331;28;20037;-74
2021/08/05 07:23:27;;;;;;;4.55;3.65;;;;;;;22.29;nan;100009.25;5050012;28;20120;-75
2021/08/05 07:25:52;;;;;;;5.93;3.50;;;;;;;22.63;nan;100004.72;5050434;28;20033;-75
2021/08/05 07:28:18;;;;;;;6.97;3.05;;;;;;;22.84;nan;100010.44;5049420;28;20029;-75
2021/08/05 07:30:43;;;;;;;5.05;3.40;;;;;;;23.20;nan;100003.75;5050334;28;20025;-75
2021/08/05 07:33:09;;;;;;;4.25;3.20;;;;;;;23.18;nan;99994.25;5049988;28;20115;-75
2021/08/05 07:35:34;;;;;;;4.55;3.08;;;;;;;23.28;nan;99989.81;5050367;28;20041;-75
2021/08/05 07:37:59;;;;;;;5.13;2.90;;;;;;;23.16;nan;99988.28;5049563;28;20028;-75
2021/08/05 07:40:25;;;;;;;4.30;3.00;;;;;;;22.95;nan;99985.25;5050020;28;20045;-76
2021/08/05 07:42:50;;;;;;;5.43;3.35;;;;;;;23.21;nan;99988.34;5050357;28;20037;-75
2021/08/05 07:45:15;;;;;;;4.43;3.08;;;;;;;23.62;nan;99978.94;5049732;28;20128;-75
2021/08/05 07:47:41;;;;;;;4.10;2.42;;;;;;;24.10;nan;99979.22;5050049;28;20044;-75
2021/08/05 07:50:09;;;;;;;3.60;2.78;;;;;;;24.16;nan;99979.00;5049377;28;20037;-76
2021/08/05 07:52:35;;;;;;;4.38;2.75;;;;;;;24.76;nan;99985.22;5049990;28;20055;-75
2021/08/05 07:55:05;;;;;;;4.43;2.90;;;;;;;24.88;nan;99992.34;5050413;28;20060;-75
2021/08/05 07:57:31;;;;;;;3.47;2.53;;;;;;;24.74;nan;99982.00;5050613;28;20320;-75
2021/08/05 07:59:56;;;;;;;4.28;2.72;;;;;;;24.22;nan;99990.69;5049628;28;20453;-75
2021/08/05 08:02:22;;;;;;;3.47;2.50;;;;;;;24.09;nan;99991.91;5049229;28;20128;-75
2021/08/05 08:04:47;;;;;;;3.80;2.70;;;;;;;24.50;nan;99981.53;5049928;28;20040;-75
2021/08/05 08:07:12;;;;;;;4.87;3.00;;;;;;;24.27;nan;99985.34;5050235;28;20683;-75
2021/08/05 08:09:37;;;;;;;3.80;2.63;;;;;;;23.97;nan;99982.31;5048811;28;20275;-75
2021/08/05 08:12:03;;;;;;;3.37;2.53;;;;;;;24.00;nan;99981.81;5049752;28;20036;-75
2021/08/05 08:14:29;;;;;;;2.72;2.17;;;;;;;24.10;nan;99982.75;5050353;28;20351;-75
2021/08/05 08:16:55;;;;;;;3.63;2.20;;;;;;;24.57;nan;99982.13;5049189;28;20033;-75
2021/08/05 08:19:20;;;;;;;3.78;2.25;;;;;;;25.75;nan;99982.84;5051264;28;20029;-75
2021/08/05 08:21:46;;;;;;;4.10;2.50;;;;;;;26.35;nan;99987.88;5050052;28;20037;-75
2021/08/05 08:24:11;;;;;;;3.85;2.55;;;;;;;26.74;nan;99985.47;5049512;28;20055;-75
2021/08/05 08:26:38;;;;;;;3.05;2.33;;;;;;;27.00;nan;99978.09;5050557;28;20040;-76
2021/08/05 08:29:04;;;;;;;4.38;2.40;;;;;;;27.42;nan;99973.41;5050190;28;20029;-75
2021/08/05 08:31:29;;;;;;;3.70;2.38;;;;;;;27.90;nan;99968.31;5050136;28;20037;-76
2021/08/05 08:33:55;;;;;;;3.95;2.30;;;;;;;28.29;nan;99962.09;5049536;28;20391;-75
2021/08/05 08:36:20;;;;;;;3.80;2.33;;;;;;;28.26;nan;99973.53;5049085;28;20033;-75
2021/08/05 08:38:45;;;;;;;2.50;2.10;;;;;;;28.49;nan;99972.03;5049142;28;20410;-75
2021/08/05 08:41:14;;;;;;;3.75;2.15;;;;;;;28.62;nan;99965.13;5049426;28;20272;-75
2021/08/05 08:43:40;;;;;;;2.97;1.92;;;;;;;29.29;nan;99974.25;5048206;28;20045;-75
2021/08/05 08:46:08;;;;;;;4.82;2.63;;;;;;;29.76;nan;99971.81;5048394;28;20098;-75
2021/08/05 08:48:33;;;;;;;2.67;1.88;;;;;;;29.56;nan;99965.50;5049015;28;20039;-76
2021/08/05 08:51:00;;;;;;;4.28;2.88;;;;;;;29.97;nan;99958.72;5049172;28;20029;-75
2021/08/05 08:53:31;;;;;;;3.35;2.20;;;;;;;29.99;nan;99959.22;5048768;28;20029;-76
2021/08/05 08:55:57;;;;;;;;;;;;;;;30.43;nan;99952.56;5047890;28;20021;-75
2021/08/05 08:58:23;;;;;;;4.20;2.60;;;;;;;28.92;nan;99950.41;5048265;28;19926;-76
2021/08/05 09:00:49;;;;;;;4.03;2.63;;;;;;;29.70;nan;99951.16;5048725;28;20502;-75
2021/08/05 09:03:15;;;;;;;3.47;2.10;;;;;;;29.07;nan;99938.56;5050685;28;20094;-75
2021/08/05 09:05:40;;;;;;;4.40;2.55;;;;;;;28.60;nan;99940.91;5051441;28;20025;-75
2021/08/05 09:08:06;;;;;;;2.70;1.83;;;;;;;28.33;nan;99944.13;5051947;28;20454;-75
2021/08/05 09:10:32;;;;;;;3.20;2.08;;;;;;;28.06;nan;99942.69;5062076;28;20141;-75
2021/08/05 09:12:59;;;;;;;3.50;2.10;;;;;;;28.52;nan;99936.91;5052056;28;20120;-76
2021/08/05 09:15:38;;;;;;;3.38;2.03;;;;;;;29.64;nan;99942.22;5051779;28;20078;-76
2021/08/05 09:18:24;;;;;;;2.88;1.83;;;;;;;29.82;nan;99937.94;5052232;28;20075;-75
2021/08/05 09:21:05;;;;;;;2.75;2.00;;;;;;;29.31;nan;99941.28;5071014;28;20032;-76
2021/08/05 09:23:57;;;;;;;2.85;2.03;;;;;;;29.34;nan;99943.44;5042851;28;20322;-76
2021/08/05 09:26:27;;;;;;;2.63;1.80;;;;;;;28.72;nan;99940.53;5049892;28;20037;-76
2021/08/05 09:29:11;;;;;;;3.13;1.90;;;;;;;28.07;nan;99930.72;5050314;28;20133;-75
2021/08/05 09:31:40;;;;;;;3.15;1.83;;;;;;;27.60;nan;99931.22;5051300;28;20033;-76
2021/08/05 09:34:08;;;;;;;3.05;1.90;;;;;;;27.03;nan;99931.44;5050932;28;20036;-75
2021/08/05 09:36:35;;;;;;;2.42;2.03;;;;;;;26.93;nan;99930.63;5051411;28;20060;-76
2021/08/05 09:39:12;;;;;;;3.47;1.95;;;;;;;26.85;nan;99921.16;5051217;28;20037;-75
2021/08/05 09:42:06;;;;;;;2.30;1.65;;;;;;;27.36;nan;99918.31;5051525;28;20154;-76
2021/08/05 09:44:38;;;;;;;3.67;1.85;;;;;;;27.51;nan;99920.97;5050950;28;20409;-76
2021/08/05 09:47:20;;;;;;;2.55;1.73;;;;;;;27.82;nan;99920.00;5051020;28;20060;-76
2021/08/05 09:49:46;;;;;;;4.85;3.30;;;;;;;28.00;nan;99915.81;5041117;28;20268;-75
2021/08/05 09:52:11;;;;;;;3.63;2.50;;;;;;;28.01;nan;99910.09;5050443;28;20037;-76
2021/08/05 09:54:38;;;;;;;3.67;2.25;;;;;;;27.91;nan;99912.88;5050862;28;20287;-75
2021/08/05 09:57:04;;;;;;;2.90;1.80;;;;;;;27.86;nan;99916.44;5050681;28;20040;-76
2021/08/05 09:59:29;;;;;;;3.33;1.80;;;;;;;28.63;nan;99907.72;5050705;28;20052;-75
2021/08/05 10:02:08;;;;;;;3.35;1.67;;;;;;;28.02;nan;99916.34;5051396;28;20033;-76
2021/08/05 10:04:36;;;;;;;3.25;1.80;;;;;;;27.60;nan;99909.50;5050211;28;20564;-76
2021/08/05 10:07:03;;;;;;;2.47;1.70;;;;;;;27.03;nan;99911.59;5050762;28;20033;-75
2021/08/05 10:09:29;;;;;;;2.65;1.50;;;;;;;26.61;nan;99910.09;5051246;28;20044;-75
2021/08/05 10:12:19;;;;;;;2.65;1.70;;;;;;;26.13;nan;99899.50;5051285;28;20104;-76
2021/08/05 10:14:46;;;;;;;3.22;1.92;;;;;;;26.41;nan;99902.75;5050631;28;20260;-75
2021/08/05 10:17:12;;;;;;;3.03;1.70;;;;;;;26.43;nan;99901.41;5051131;28;20037;-75
2021/08/05 10:19:40;;;;;;;3.05;1.60;;;;;;;26.07;nan;99897.88;5050955;28;20056;-75
2021/08/05 10:22:08;;;;;;;2.90;1.70;;;;;;;25.78;nan;99889.41;5048979;28;20040;-76
2021/08/05 10:24:36;;;;;;;2.28;1.60;;;;;;;25.88;nan;99899.47;5050348;28;20025;-75
2021/08/05 10:27:01;;;;;;;3.35;1.70;;;;;;;25.75;nan;99896.16;5050334;28;20044;-76
2021/08/05 10:29:27;;;;;;;3.95;1.90;;;;;;;25.79;nan;99885.59;5050316;28;20036;-76
2021/08/05 10:31:53;;;;;;;2.70;1.80;;;;;;;25.55;nan;99890.69;5049453;28;20087;-76
2021/08/05 10:34:19;;;;;;;2.75;1.85;;;;;;;25.16;nan;99883.75;5049722;28;20456;-76
2021/08/05 10:36:44;;;;;;;3.22;1.98;;;;;;;24.97;nan;99879.91;5050585;28;20025;-76
2021/08/05 10:39:10;;;;;;;3.20;1.90;;;;;;;24.83;nan;99881.44;5050130;28;20033;-76
2021/08/05 10:41:36;;;;;;;4.47;1.90;;;;;;;25.01;nan;99878.31;5050920;28;20068;-76
2021/08/05 10:44:01;;;;;;;2.53;1.50;;;;;;;24.80;nan;99877.38;5048749;28;20029;-75
2021/08/05 10:46:33;;;;;;;2.45;1.73;;;;;;;24.58;nan;99869.41;5049760;28;20509;-75
2021/08/05 10:49:08;;;;;;;4.97;2.25;;;;;;;24.24;nan;99869.69;5050007;28;20037;-75
2021/08/05 10:51:40;;;;;;;3.38;2.20;;;;;;;24.16;nan;99870.94;5033932;28;20418;-75
2021/08/05 10:54:06;;;;;;;3.80;2.15;;;;;;;24.04;nan;99862.19;5049682;28;20655;-76
2021/08/05 10:56:32;;;;;;;2.38;1.80;;;;;;;24.45;nan;99862.50;5048056;28;20098;-75
2021/08/05 10:59:04;;;;;;;3.45;1.90;;;;;;;24.94;nan;99856.91;5048111;28;20029;-75
2021/08/05 11:01:55;;;;;;;3.53;2.20;;;;;;;25.04;nan;99858.03;5050250;28;20390;-76
2021/08/05 11:04:45;;;;;;;3.63;1.90;;;;;;;25.29;nan;99860.03;5029992;28;20033;-76
2021/08/05 11:07:31;;;;;;;2.45;1.50;;;;;;;25.31;nan;99852.47;5034535;28;20082;-76
2021/08/05 11:10:15;;;;;;;2.42;1.80;;;;;;;25.18;nan;99851.06;5040401;28;20048;-76
2021/08/05 11:12:57;;;;;;;2.50;1.63;;;;;;;25.02;nan;99850.16;5049620;28;20093;-76
2021/08/05 11:15:26;;;;;;;3.15;2.00;;;;;;;24.95;nan;99849.59;5050111;28;20163;-76
2021/08/05 11:18:15;;;;;;;3.83;1.92;;;;;;;24.94;nan;99842.56;5050173;28;20041;-76
2021/08/05 11:20:50;;;;;;;3.40;1.80;;;;;;;25.14;nan;99848.03;5049519;28;20059;-76
2021/08/05 11:23:24;;;;;;;3.35;1.90;;;;;;;25.22;nan;99838.66;5028433;28;20116;-76
2021/08/05 11:25:49;;;;;;;3.20;2.00;;;;;;;25.29;nan;99830.25;5029451;28;20033;-76
2021/08/05 11:28:43;;;;;;;2.03;1.70;;;;;;;25.35;nan;99831.91;5045293;28;20259;-76
2021/08/05 11:31:10;;;;;;;3.03;1.83;;;;;;;24.90;nan;99823.31;5050233;28;20610;-75
2021/08/05 11:33:41;;;;;;;3.17;2.05;;;;;;;24.94;nan;99826.34;5049756;28;20035;-76
2021/08/05 11:39:10;;;;;;;2.30;1.50;;;;;;;25.45;nan;99823.00;5049434;28;20581;-76
2021/08/05 11:42:00;;;;;;;3.30;1.65;;;;;;;25.66;nan;99821.97;5049728;28;20045;-76
2021/08/05 11:44:37;;;;;;;2.10;1.53;;;;;;;25.76;nan;99818.44;5047526;28;20029;-76
2021/08/05 11:47:05;;;;;;;1.98;1.42;;;;;;;25.39;nan;99814.88;5049929;28;20029;-75
2021/08/05 11:49:35;;;;;;;2.45;1.60;;;;;;;25.55;nan;99810.31;5049165;28;20161;-76
2021/08/05 11:52:08;;;;;;;2.03;1.48;;;;;;;25.38;nan;99815.13;5049681;28;20388;-75